| time (UTC) | temp F | wind direction | speed knots | gust knots | rain 1hr in | rain 24hr in | rain mn in | humidity % | barometer mb |
| 20260505200056 | 81 | 197 | 4.3 | 9.6 | 0.00 | 0.00 | 0.00 | 56 | 1015.6 |
| 20260505194549 | 81 | 198 | 4.3 | 8.7 | 0.00 | 0.00 | 0.00 | 56 | 1015.6 |
| 20260505193059 | 81 | 157 | 4.3 | 10.4 | 0.00 | 0.00 | 0.00 | 56 | 1015.8 |
| 20260505191549 | 80 | 181 | 4.3 | 8.7 | 0.00 | 0.00 | 0.00 | 56 | 1015.7 |
| 20260505190053 | 80 | 151 | 4.3 | 10.4 | 0.00 | 0.00 | 0.00 | 56 | 1016.1 |
| 20260505184551 | 79 | 135 | 4.3 | 7.8 | 0.00 | 0.00 | 0.00 | 59 | 1016.1 |
| 20260505183045 | 79 | 174 | 4.3 | 7.8 | 0.00 | 0.00 | 0.00 | 58 | 1016.1 |
| 20260505181555 | 78 | 136 | 2.6 | 8.7 | 0.00 | 0.00 | 0.00 | 59 | 1016.3 |
| 20260505180054 | 80 | 142 | 4.3 | 7.8 | 0.00 | 0.00 | 0.00 | 56 | 1016.3 |
| 20260505174557 | 79 | 167 | 3.5 | 9.6 | 0.00 | 0.00 | 0.00 | 55 | 1016.5 |
| 20260505173047 | 80 | 149 | 3.5 | 8.7 | 0.00 | 0.00 | 0.00 | 57 | 1016.4 |
| 20260505171548 | 80 | 162 | 4.3 | 9.6 | 0.00 | 0.00 | 0.00 | 55 | 1016.5 |
| 20260505170046 | 80 | 210 | 3.5 | 9.6 | 0.00 | 0.00 | 0.00 | 52 | 1016.6 |
| 20260505164551 | 80 | 149 | 4.3 | 7.8 | 0.00 | 0.00 | 0.00 | 52 | 1016.6 |
| 20260505163054 | 79 | 135 | 3.5 | 7.8 | 0.00 | 0.00 | 0.00 | 54 | 1016.3 |
| 20260505161548 | 79 | 174 | 3.5 | 6.1 | 0.00 | 0.00 | 0.00 | 53 | 1016.3 |
| 20260505153050 | 77 | 190 | 2.6 | 7.0 | 0.00 | 0.00 | 0.00 | 55 | 1016.7 |
| 20260505151545 | 76 | 127 | 3.5 | 7.0 | 0.00 | 0.00 | 0.00 | 57 | 1016.7 |
| 20260505124551 | 63 | 67 | 1.7 | 3.5 | 0.00 | 0.00 | 0.00 | 85 | 1016.4 |
| 20260505123048 | 61 | 60 | 0.9 | 2.6 | 0.00 | 0.00 | 0.00 | 89 | 1016.2 |
| 20260505121546 | 60 | 105 | 0.9 | 1.7 | 0.00 | 0.00 | 0.00 | 90 | 1016.1 |
| 20260505120051 | 58 | 60 | 0.9 | 1.7 | 0.00 | 0.00 | 0.00 | 93 | 1016.0 |
| 20260505114550 | 56 | 0 | 0.0 | 0.9 | 0.00 | 0.00 | 0.00 | 93 | 1015.9 |
| 20260505113047 | 55 | 0 | 0.0 | 0.9 | 0.00 | 0.00 | 0.00 | 95 | 1015.8 |
| 20260505111550 | 54 | 44 | 0.0 | 0.9 | 0.00 | 0.00 | 0.00 | 96 | 1015.5 |
| 20260505101551 | 54 | 98 | 0.0 | 1.7 | 0.00 | 0.00 | 0.00 | 96 | 1015.5 |
| 20260505100048 | 53 | 90 | 0.0 | 0.9 | 0.00 | 0.00 | 0.00 | 97 | 1015.4 |
| 20260505094606 | 52 | 5 | 0.9 | 2.6 | 0.00 | 0.00 | 0.00 | 96 | 1015.4 |
| 20260505093055 | 52 | 25 | 0.9 | 1.7 | 0.00 | 0.00 | 0.00 | 96 | 1014.7 |
| 20260505091559 | 52 | 21 | 0.0 | 0.9 | 0.00 | 0.00 | 0.00 | 96 | 1014.7 |
| 20260505090053 | 52 | 0 | 0.0 | 0.0 | 0.00 | 0.00 | 0.00 | 96 | 1014.7 |
| 20260505084554 | 51 | 0 | 0.0 | 0.9 | 0.00 | 0.00 | 0.00 | 96 | 1014.6 |
| 20260505083058 | 51 | 26 | 0.0 | 0.9 | 0.00 | 0.00 | 0.00 | 96 | 1014.6 |
| 20260505081558 | 52 | 0 | 0.0 | 0.0 | 0.00 | 0.00 | 0.00 | 96 | 1014.5 |
| 20260505080050 | 51 | 0 | 0.0 | 0.0 | 0.00 | 0.00 | 0.00 | 96 | 1014.5 |
| 20260505074546 | 51 | 0 | 0.0 | 0.0 | 0.00 | 0.00 | 0.00 | 96 | 1014.7 |
| 20260505073049 | 51 | 0 | 0.0 | 0.0 | 0.00 | 0.00 | 0.00 | 96 | 1014.7 |
| 20260505071550 | 51 | 0 | 0.0 | 0.0 | 0.00 | 0.00 | 0.00 | 95 | 1014.7 |
| 20260505070048 | 51 | 0 | 0.0 | 0.0 | 0.00 | 0.00 | 0.00 | 95 | 1015.0 |
| 20260505064549 | 51 | 0 | 0.0 | 0.0 | 0.00 | 0.00 | 0.00 | 95 | 1015.0 |
| 20260505063047 | 52 | 0 | 0.0 | 0.0 | 0.00 | 0.00 | 0.00 | 96 | 1015.2 |
| 20260505061552 | 51 | 0 | 0.0 | 0.0 | 0.00 | 0.00 | 0.00 | 95 | 1015.5 |
| 20260505060055 | 51 | 0 | 0.0 | 0.0 | 0.00 | 0.00 | 0.00 | 95 | 1015.4 |
| 20260505054558 | 52 | 0 | 0.0 | 0.0 | 0.00 | 0.00 | 0.00 | 94 | 1015.5 |
| 20260505053047 | 52 | 0 | 0.0 | 0.0 | 0.00 | 0.00 | 0.00 | 94 | 1015.4 |
| 20260505051548 | 53 | 0 | 0.0 | 0.0 | 0.00 | 0.00 | 0.00 | 94 | 1015.5 |
| 20260505041551 | 54 | 0 | 0.0 | 0.0 | 0.00 | 0.00 | 0.00 | 92 | 1016.0 |
| 20260505040059 | 56 | 0 | 0.0 | 0.0 | 0.00 | 0.00 | 0.00 | 92 | 1015.9 |
| 20260505034552 | 56 | 229 | 0.0 | 0.9 | 0.00 | 0.00 | 0.00 | 93 | 1016.1 |
| 20260505033049 | 56 | 229 | 0.0 | 0.9 | 0.00 | 0.00 | 0.00 | 91 | 1015.9 |
| 20260505031557 | 57 | 229 | 0.0 | 0.9 | 0.00 | 0.00 | 0.00 | 91 | 1016.2 |
| 20260505024552 | 58 | 0 | 0.0 | 0.9 | 0.00 | 0.00 | 0.00 | 90 | 1016.3 |
| 20260505023048 | 59 | 0 | 0.0 | 0.0 | 0.00 | 0.00 | 0.00 | 89 | 1016.5 |
| 20260505021550 | 60 | 0 | 0.0 | 0.0 | 0.00 | 0.00 | 0.00 | 87 | 1016.3 |
| 20260505020052 | 62 | 0 | 0.0 | 0.9 | 0.00 | 0.00 | 0.00 | 84 | 1016.4 |
| 20260505014629 | 64 | 0 | 0.0 | 0.0 | 0.00 | 0.00 | 0.00 | 81 | 1016.4 |
| 20260505013047 | 66 | 0 | 0.0 | 0.9 | 0.00 | 0.00 | 0.00 | 70 | 1016.1 |
| 20260505011551 | 66 | 0 | 0.0 | 0.9 | 0.00 | 0.00 | 0.00 | 69 | 1016.1 |
| 20260505010056 | 67 | 220 | 0.9 | 2.6 | 0.00 | 0.00 | 0.00 | 67 | 1016.3 |
| 20260505004545 | 67 | 229 | 0.9 | 2.6 | 0.00 | 0.00 | 0.00 | 64 | 1016.2 |
| 20260505003047 | 68 | 219 | 1.7 | 4.3 | 0.00 | 0.00 | 0.00 | 61 | 1016.2 |
| 20260505001548 | 69 | 207 | 2.6 | 5.2 | 0.00 | 0.00 | 0.00 | 58 | 1015.9 |
| 20260505000055 | 70 | 224 | 2.6 | 4.3 | 0.00 | 0.00 | 0.00 | 53 | 1016.0 |
| 20260504234546 | 71 | 217 | 0.9 | 6.1 | 0.00 | 0.00 | 0.00 | 48 | 1015.9 |
| 20260504233049 | 72 | 206 | 2.6 | 6.1 | 0.00 | 0.00 | 0.00 | 46 | 1016.0 |
| 20260504231547 | 72 | 179 | 1.7 | 7.8 | 0.00 | 0.00 | 0.00 | 47 | 1016.0 |
| 20260504230050 | 73 | 245 | 3.5 | 8.7 | 0.00 | 0.00 | 0.00 | 49 | 1015.9 |
| 20260504224549 | 73 | 193 | 1.7 | 11.3 | 0.00 | 0.00 | 0.00 | 47 | 1016.1 |
| 20260504223050 | 74 | 191 | 3.5 | 9.6 | 0.00 | 0.00 | 0.00 | 46 | 1015.9 |
| 20260504221549 | 75 | 240 | 5.2 | 11.3 | 0.00 | 0.00 | 0.00 | 42 | 1016.1 |
| 20260504220048 | 75 | 172 | 5.2 | 10.4 | 0.00 | 0.00 | 0.00 | 41 | 1015.8 |
| 20260504214555 | 76 | 220 | 2.6 | 9.6 | 0.00 | 0.00 | 0.00 | 40 | 1015.8 |
| 20260504213042 | 77 | 203 | 4.3 | 12.2 | 0.00 | 0.00 | 0.00 | 38 | 1015.7 |
| 20260504211550 | 76 | 158 | 4.3 | 10.4 | 0.00 | 0.00 | 0.00 | 39 | 1015.7 |
| 20260504204606 | 77 | 277 | 5.2 | 12.2 | 0.00 | 0.00 | 0.00 | 39 | 1015.6 |
| 20260504203108 | 77 | 184 | 5.2 | 11.3 | 0.00 | 0.00 | 0.00 | 38 | 1015.7 |
| 20260504201550 | 78 | 154 | 5.2 | 8.7 | 0.00 | 0.00 | 0.00 | 33 | 1016.1 |